Time;durP1;ratioP1;P1;durP2;ratioP2;P2;SDS_P1;SDS_P2;PMS_P1;PMS_P2;Temp;Humidity;BMP_temperature;BMP_pressure;BME280_temperature;BME280_humidity;BME280_pressure;Samples;Min_cycle;Max_cycle;Signal;HPM_P1;HPM_P2
2023/11/23 00:01:18;;;;;;;13.47;8.87;;;2.70;4.50;;;;;;4993032;28;20254;-72
2023/11/23 00:03:44;;;;;;;11.40;8.10;;;2.80;4.90;;;;;;4993654;28;20437;-73
2023/11/23 00:06:09;;;;;;;16.43;9.70;;;2.70;5.60;;;;;;4993054;28;20436;-73
2023/11/23 00:08:35;;;;;;;12.07;8.20;;;2.70;5.80;;;;;;4992915;28;20259;-73
2023/11/23 00:11:00;;;;;;;11.10;8.33;;;2.70;4.70;;;;;;4992614;28;20232;-73
2023/11/23 00:13:26;;;;;;;13.83;9.00;;;2.60;4.90;;;;;;4992669;28;20184;-73
2023/11/23 00:15:51;;;;;;;12.57;8.33;;;2.70;5.50;;;;;;4992645;28;20211;-73
2023/11/23 00:18:17;;;;;;;18.40;10.90;;;2.70;5.80;;;;;;4992798;28;20192;-73
2023/11/23 00:20:44;;;;;;;12.27;9.90;;;2.70;6.00;;;;;;4992520;28;20211;-73
2023/11/23 00:23:09;;;;;;;11.80;8.82;;;2.80;6.30;;;;;;4992441;28;20586;-73
2023/11/23 00:25:35;;;;;;;14.13;11.23;;;2.70;5.80;;;;;;4992331;28;20190;-73
2023/11/23 00:28:01;;;;;;;10.97;9.50;;;2.70;6.20;;;;;;4992411;28;20202;-73
2023/11/23 00:30:27;;;;;;;14.02;11.10;;;2.80;5.80;;;;;;4992317;28;20204;-73
2023/11/23 00:32:53;;;;;;;14.20;9.88;;;2.70;5.80;;;;;;4992331;28;20171;-73
2023/11/23 00:35:18;;;;;;;15.53;11.53;;;2.70;6.70;;;;;;4991651;28;20234;-73
2023/11/23 00:37:47;;;;;;;12.00;8.70;;;2.70;7.00;;;;;;4992218;28;20184;-73
2023/11/23 00:40:12;;;;;;;14.95;10.70;;;2.60;7.30;;;;;;4992023;28;20210;-73
2023/11/23 00:42:38;;;;;;;13.10;10.27;;;2.60;7.90;;;;;;4992301;28;20233;-73
2023/11/23 00:45:04;;;;;;;14.10;10.27;;;2.70;7.60;;;;;;4992106;28;20184;-73
2023/11/23 00:47:30;;;;;;;13.35;9.20;;;2.70;7.10;;;;;;4992287;28;20520;-73
2023/11/23 00:49:56;;;;;;;13.17;9.40;;;2.60;7.80;;;;;;4992044;28;20226;-73
2023/11/23 00:52:21;;;;;;;13.30;9.47;;;2.60;8.00;;;;;;4992015;28;20181;-73
2023/11/23 00:54:47;;;;;;;12.23;8.13;;;2.70;7.60;;;;;;4990805;28;20202;-73
2023/11/23 00:57:13;;;;;;;13.10;9.70;;;2.60;5.90;;;;;;4992097;28;20399;-72
2023/11/23 00:59:38;;;;;;;12.40;9.80;;;2.70;6.60;;;;;;4992159;28;20182;-72
2023/11/23 01:02:05;;;;;;;13.93;10.17;;;2.70;7.50;;;;;;4992241;28;20490;-72
2023/11/23 01:04:30;;;;;;;12.52;9.18;;;2.60;6.80;;;;;;4991797;28;20187;-72
2023/11/23 01:06:56;;;;;;;16.07;9.67;;;2.50;8.20;;;;;;4992262;28;20182;-72
2023/11/23 01:09:21;;;;;;;13.93;10.23;;;2.50;9.30;;;;;;4992074;28;20215;-73
2023/11/23 01:11:47;;;;;;;13.73;10.67;;;2.50;9.90;;;;;;4990523;28;20241;-72
2023/11/23 01:14:13;;;;;;;11.60;7.30;;;2.60;9.30;;;;;;4991968;28;20657;-73
2023/11/23 01:16:39;;;;;;;15.15;8.80;;;2.50;8.60;;;;;;4991996;28;20178;-73
2023/11/23 01:19:04;;;;;;;13.97;8.17;;;2.60;8.10;;;;;;4991773;28;20174;-73
2023/11/23 01:21:30;;;;;;;13.67;9.50;;;2.60;8.50;;;;;;4991791;28;20256;-72
2023/11/23 01:23:56;;;;;;;11.30;9.60;;;2.60;8.60;;;;;;4991530;28;20658;-73
2023/11/23 01:26:21;;;;;;;11.80;9.07;;;2.60;7.90;;;;;;4991577;28;20433;-72
2023/11/23 01:28:47;;;;;;;14.93;8.10;;;2.50;7.80;;;;;;4991466;28;20712;-72
2023/11/23 01:31:13;;;;;;;16.37;9.57;;;2.60;7.90;;;;;;4991628;28;20206;-71
2023/11/23 01:33:38;;;;;;;11.17;8.07;;;2.50;6.90;;;;;;4991391;28;20184;-72
2023/11/23 01:36:04;;;;;;;13.80;10.53;;;2.50;7.40;;;;;;4991861;28;20266;-72
2023/11/23 01:38:30;;;;;;;9.48;8.02;;;2.60;7.40;;;;;;4991830;28;20181;-72
2023/11/23 01:40:56;;;;;;;11.20;9.40;;;2.60;6.90;;;;;;4990800;28;20718;-72
2023/11/23 01:43:21;;;;;;;14.03;8.70;;;2.60;6.10;;;;;;4992399;28;20175;-72
2023/11/23 01:45:47;;;;;;;12.17;8.90;;;2.60;5.70;;;;;;4991935;28;20183;-72
2023/11/23 01:48:14;;;;;;;11.50;9.00;;;2.60;6.10;;;;;;4995396;28;21008;-72
2023/11/23 01:50:41;;;;;;;12.90;9.32;;;2.60;7.00;;;;;;4995652;28;20588;-72
2023/11/23 01:53:08;;;;;;;10.70;8.73;;;2.50;7.20;;;;;;4995674;28;20258;-72
2023/11/23 01:55:34;;;;;;;13.18;9.23;;;2.50;7.00;;;;;;4995328;28;20180;-72
2023/11/23 01:58:02;;;;;;;12.87;9.70;;;2.50;8.60;;;;;;4995331;28;20780;-73
2023/11/23 02:00:29;;;;;;;13.35;10.90;;;2.40;8.10;;;;;;4995031;28;20343;-72
2023/11/23 02:02:55;;;;;;;13.38;8.98;;;2.30;8.10;;;;;;4995014;28;20202;-72
2023/11/23 02:05:23;;;;;;;14.90;9.82;;;2.20;8.80;;;;;;4995059;28;20626;-72
2023/11/23 02:07:49;;;;;;;12.18;8.57;;;2.20;9.80;;;;;;4995070;28;20262;-72
2023/11/23 02:10:15;;;;;;;16.47;10.70;;;2.20;9.80;;;;;;4994952;28;20380;-72
2023/11/23 02:12:41;;;;;;;13.63;10.90;;;2.10;10.40;;;;;;4994961;28;20276;-72
2023/11/23 02:15:08;;;;;;;14.20;10.30;;;2.10;10.60;;;;;;4994864;28;20179;-72
2023/11/23 02:17:34;;;;;;;13.23;9.95;;;2.10;11.00;;;;;;4995255;28;20624;-72
2023/11/23 02:20:00;;;;;;;14.63;8.97;;;2.00;10.70;;;;;;4994884;28;20191;-71
2023/11/23 02:22:26;;;;;;;17.90;10.60;;;2.00;11.10;;;;;;4994908;28;20263;-71
2023/11/23 02:24:52;;;;;;;14.40;10.30;;;1.90;11.30;;;;;;4994493;28;20319;-71
2023/11/23 02:27:18;;;;;;;13.80;9.57;;;1.80;11.90;;;;;;4994557;28;20258;-71
2023/11/23 02:29:43;;;;;;;17.47;11.33;;;1.80;12.60;;;;;;4994501;28;20205;-71
2023/11/23 02:32:20;;;;;;;16.70;10.50;;;1.70;12.80;;;;;;4994348;28;20205;-71
2023/11/23 02:34:46;;;;;;;16.95;11.00;;;1.60;13.70;;;;;;4994363;28;20573;-71
2023/11/23 02:37:11;;;;;;;17.10;11.10;;;1.60;13.70;;;;;;4994570;28;20168;-71
2023/11/23 02:39:39;;;;;;;18.33;12.23;;;1.50;13.70;;;;;;4994403;28;20188;-71
2023/11/23 02:42:05;;;;;;;15.07;11.32;;;1.40;15.30;;;;;;4994205;28;20292;-71
2023/11/23 02:44:31;;;;;;;12.50;9.30;;;1.40;15.20;;;;;;4994183;28;20320;-72
2023/11/23 02:46:56;;;;;;;14.37;9.70;;;1.40;15.00;;;;;;4994285;28;20705;-72
2023/11/23 02:49:22;;;;;;;15.30;10.77;;;1.30;15.10;;;;;;4994138;28;20292;-72
2023/11/23 02:51:47;;;;;;;14.17;10.93;;;1.30;15.80;;;;;;4994116;28;20236;-71
2023/11/23 02:54:13;;;;;;;17.30;11.43;;;1.30;15.80;;;;;;4993930;28;20176;-71
2023/11/23 02:56:39;;;;;;;12.70;9.83;;;1.20;16.00;;;;;;4994052;28;20168;-72
2023/11/23 02:59:04;;;;;;;16.97;10.93;;;1.20;15.70;;;;;;4993683;28;20208;-72
2023/11/23 03:01:32;;;;;;;17.20;11.17;;;1.10;16.50;;;;;;4994100;28;20208;-72
2023/11/23 03:03:58;;;;;;;20.85;10.82;;;1.10;16.70;;;;;;4994060;28;20161;-72
2023/11/23 03:06:23;;;;;;;16.77;10.27;;;1.10;17.70;;;;;;4994236;28;20253;-72
2023/11/23 03:08:50;;;;;;;18.63;12.30;;;1.10;17.70;;;;;;4994441;28;20300;-72
2023/11/23 03:11:20;;;;;;;14.65;10.73;;;1.00;17.60;;;;;;4994667;28;20566;-73
2023/11/23 03:13:46;;;;;;;15.95;10.52;;;1.00;18.10;;;;;;4994106;28;20180;-73
2023/11/23 03:16:12;;;;;;;16.33;10.23;;;1.00;18.20;;;;;;4994230;28;20180;-72
2023/11/23 03:18:37;;;;;;;16.63;10.67;;;0.90;19.10;;;;;;4994302;28;20762;-73
2023/11/23 03:21:04;;;;;;;12.30;8.80;;;0.90;19.30;;;;;;4993990;28;20554;-73
2023/11/23 03:23:29;;;;;;;15.40;10.52;;;0.90;19.60;;;;;;4993944;28;20687;-72
2023/11/23 03:25:55;;;;;;;16.50;10.03;;;0.90;19.90;;;;;;4994120;28;20177;-73
2023/11/23 03:28:20;;;;;;;14.33;10.93;;;0.90;20.90;;;;;;4993605;28;20299;-73
2023/11/23 03:30:46;;;;;;;15.63;9.90;;;0.80;21.10;;;;;;4993621;28;20298;-73
2023/11/23 03:33:11;;;;;;;16.53;10.37;;;0.80;21.60;;;;;;4993618;28;20189;-73
2023/11/23 03:35:37;;;;;;;16.13;10.70;;;0.80;21.60;;;;;;4993678;28;20189;-72
2023/11/23 03:38:03;;;;;;;12.33;8.77;;;0.70;20.70;;;;;;4993425;28;20185;-72
2023/11/23 03:40:28;;;;;;;20.23;11.80;;;0.70;21.80;;;;;;4993543;28;20687;-72
2023/11/23 03:42:54;;;;;;;20.53;12.00;;;0.70;22.70;;;;;;4993265;28;20176;-71
2023/11/23 03:45:22;;;;;;;14.70;9.70;;;0.60;22.90;;;;;;4993074;28;20251;-71
2023/11/23 03:47:48;;;;;;;14.77;9.98;;;0.60;23.40;;;;;;4993153;28;20716;-72
2023/11/23 03:50:14;;;;;;;15.47;10.93;;;0.50;24.70;;;;;;4993307;28;20268;-71
2023/11/23 03:52:41;;;;;;;15.98;9.95;;;;;;;;;;4993313;28;20507;-72
2023/11/23 03:55:08;;;;;;;17.15;9.55;;;0.40;24.60;;;;;;4993030;28;20219;-72
2023/11/23 03:57:34;;;;;;;17.35;12.15;;;0.30;25.40;;;;;;4993216;28;20199;-72
2023/11/23 04:00:00;;;;;;;15.53;11.40;;;0.20;26.10;;;;;;4992809;28;20189;-72
2023/11/23 04:02:26;;;;;;;19.25;11.25;;;0.20;27.10;;;;;;4992951;28;20471;-72
2023/11/23 04:04:51;;;;;;;19.53;12.47;;;0.20;32.10;;;;;;4992980;28;20566;-72
2023/11/23 04:07:17;;;;;;;19.90;12.93;;;0.20;33.80;;;;;;4992990;28;20415;-72
2023/11/23 04:09:43;;;;;;;16.27;10.53;;;0.10;34.10;;;;;;4992240;28;20215;-71
2023/11/23 04:12:08;;;;;;;19.90;12.73;;;0.10;35.00;;;;;;4992735;28;20444;-72
2023/11/23 04:14:34;;;;;;;19.03;12.47;;;0.10;36.00;;;;;;4992907;28;20180;-72
2023/11/23 04:16:59;;;;;;;20.90;12.80;;;0.10;36.30;;;;;;4992860;28;20183;-72
2023/11/23 04:19:25;;;;;;;21.40;14.00;;;0.10;36.60;;;;;;4992725;28;20239;-73
2023/11/23 04:21:51;;;;;;;20.70;12.83;;;0.10;37.30;;;;;;4992677;28;20211;-73
2023/11/23 04:24:17;;;;;;;16.30;10.93;;;0.10;37.10;;;;;;4992494;28;20177;-72
2023/11/23 04:26:42;;;;;;;19.90;11.60;;;0.10;37.80;;;;;;4992541;28;20173;-72
2023/11/23 04:29:08;;;;;;;16.20;10.87;;;0.10;37.60;;;;;;4992312;28;20209;-72
2023/11/23 04:31:35;;;;;;;18.83;12.30;;;0.10;38.30;;;;;;4992435;28;20566;-72
2023/11/23 04:34:01;;;;;;;22.25;13.10;;;0.10;38.40;;;;;;4992243;28;20191;-72
2023/11/23 04:36:28;;;;;;;17.17;10.73;;;0.10;37.90;;;;;;4992458;28;20200;-71
2023/11/23 04:38:54;;;;;;;17.17;10.93;;;0.00;39.00;;;;;;4992531;28;20663;-72
2023/11/23 04:41:20;;;;;;;21.02;12.60;;;0.00;38.90;;;;;;4992170;28;20216;-72
2023/11/23 04:43:45;;;;;;;18.20;11.63;;;-0.10;38.60;;;;;;4992116;28;20181;-72
2023/11/23 04:46:11;;;;;;;19.87;11.37;;;-0.10;38.80;;;;;;4992457;28;20259;-72
2023/11/23 04:48:37;;;;;;;15.05;11.27;;;-0.10;39.00;;;;;;4992354;28;20250;-71
2023/11/23 04:51:02;;;;;;;17.00;11.17;;;-0.10;39.50;;;;;;4992126;28;20695;-72
2023/11/23 04:53:28;;;;;;;17.50;11.90;;;-0.10;40.40;;;;;;4992145;28;20196;-72
2023/11/23 04:55:53;;;;;;;18.70;11.30;;;-0.10;40.30;;;;;;4992048;28;20244;-71
2023/11/23 04:58:19;;;;;;;19.17;10.83;;;0.00;39.80;;;;;;4992395;28;20210;-71
2023/11/23 05:00:44;;;;;;;17.30;10.70;;;-0.10;39.60;;;;;;4992127;28;20200;-71
2023/11/23 05:03:10;;;;;;;15.13;10.40;;;-0.10;39.70;;;;;;4992266;28;20188;-71
2023/11/23 05:05:36;;;;;;;18.90;12.52;;;-0.10;39.60;;;;;;4992026;28;20699;-71
2023/11/23 05:08:01;;;;;;;16.70;12.60;;;-0.10;39.00;;;;;;4992284;28;20200;-71
2023/11/23 05:10:27;;;;;;;21.40;13.03;;;-0.10;39.10;;;;;;4992017;28;20205;-71
2023/11/23 05:12:53;;;;;;;17.77;11.27;;;-0.10;38.40;;;;;;4992149;28;20251;-71
2023/11/23 05:15:18;;;;;;;14.93;9.87;;;-0.10;38.50;;;;;;4992373;28;20176;-71
2023/11/23 05:17:44;;;;;;;16.93;10.20;;;-0.10;38.60;;;;;;4992126;28;20239;-71
2023/11/23 05:20:11;;;;;;;15.70;9.67;;;-0.10;39.10;;;;;;4992602;28;20187;-73
2023/11/23 05:22:36;;;;;;;15.50;10.70;;;-0.10;39.00;;;;;;4996478;28;20180;-73
2023/11/23 05:25:02;;;;;;;18.03;11.53;;;-0.10;39.30;;;;;;4996269;28;20184;-71
2023/11/23 05:27:27;;;;;;;16.33;10.03;;;-0.20;39.30;;;;;;4996209;28;20184;-72
2023/11/23 05:29:53;;;;;;;17.10;10.43;;;-0.20;39.30;;;;;;4995857;28;20568;-71
2023/11/23 05:32:18;;;;;;;17.90;11.30;;;-0.20;39.50;;;;;;4995983;28;20632;-71
2023/11/23 05:34:44;;;;;;;19.07;11.60;;;-0.20;39.90;;;;;;4996003;28;20606;-72
2023/11/23 05:37:10;;;;;;;16.50;9.40;;;-0.30;40.00;;;;;;4995683;28;20228;-72
2023/11/23 05:39:36;;;;;;;16.70;10.80;;;-0.30;40.00;;;;;;4995634;28;20175;-72
2023/11/23 05:42:01;;;;;;;14.57;10.20;;;-0.30;40.00;;;;;;4995887;28;20526;-72
2023/11/23 05:44:27;;;;;;;15.53;10.27;;;-0.30;40.90;;;;;;4995666;28;20195;-72
2023/11/23 05:46:52;;;;;;;12.57;8.13;;;-0.40;40.30;;;;;;4995641;28;20756;-72
2023/11/23 05:49:21;;;;;;;15.67;10.73;;;-0.30;40.40;;;;;;4995901;28;20707;-72
2023/11/23 05:51:47;;;;;;;14.90;9.30;;;-0.40;41.00;;;;;;4995630;28;20199;-71
2023/11/23 05:54:13;;;;;;;15.38;9.00;;;-0.50;40.10;;;;;;4995170;28;20200;-72
2023/11/23 05:56:38;;;;;;;15.10;8.57;;;-0.50;41.10;;;;;;4995313;28;20286;-72
2023/11/23 05:59:04;;;;;;;18.27;8.00;;;-0.50;41.90;;;;;;4995252;28;20173;-72
2023/11/23 06:01:30;;;;;;;14.30;9.90;;;-0.50;41.10;;;;;;4995570;28;20280;-72
2023/11/23 06:03:55;;;;;;;13.30;9.00;;;-0.50;42.20;;;;;;4995326;28;20188;-71
2023/11/23 06:06:23;;;;;;;13.30;9.00;;;-0.50;40.50;;;;;;4994166;28;20270;-71
2023/11/23 06:08:49;;;;;;;17.67;9.10;;;-0.50;41.10;;;;;;4995045;28;20568;-71
2023/11/23 06:11:16;;;;;;;16.15;9.35;;;-0.50;42.00;;;;;;4995315;28;20667;-71
2023/11/23 06:13:43;;;;;;;17.15;8.60;;;-0.50;41.30;;;;;;4994936;28;20262;-72
2023/11/23 06:16:11;;;;;;;14.27;10.07;;;-0.50;41.40;;;;;;4995165;28;20195;-72
2023/11/23 06:18:37;;;;;;;14.73;10.02;;;-0.50;41.70;;;;;;4995164;28;20184;-72
2023/11/23 06:21:03;;;;;;;14.47;8.80;;;-0.50;41.40;;;;;;4995466;28;20257;-72
2023/11/23 06:23:29;;;;;;;16.37;8.33;;;-0.50;42.20;;;;;;4993833;28;20723;-71
2023/11/23 06:25:55;;;;;;;10.45;7.80;;;-0.50;42.20;;;;;;4995474;28;20176;-69
2023/11/23 06:28:21;;;;;;;11.80;9.33;;;-0.50;41.80;;;;;;4994950;28;20262;-70
2023/11/23 06:30:47;;;;;;;11.97;8.83;;;-0.50;41.90;;;;;;4994671;28;20997;-70
2023/11/23 06:33:12;;;;;;;15.83;9.57;;;-0.60;42.10;;;;;;4994110;28;20180;-70
2023/11/23 06:35:38;;;;;;;15.97;9.67;;;-0.60;43.50;;;;;;4994784;28;20267;-71
2023/11/23 06:38:04;;;;;;;13.37;7.43;;;-0.60;44.20;;;;;;4994701;28;20281;-70
2023/11/23 06:40:30;;;;;;;13.73;8.02;;;-0.50;44.50;;;;;;4994537;28;20214;-70
2023/11/23 06:42:55;;;;;;;15.03;8.60;;;-0.60;43.00;;;;;;4994584;28;20185;-70
2023/11/23 06:45:21;;;;;;;13.70;8.13;;;-0.60;43.50;;;;;;4994388;28;20189;-70
2023/11/23 06:47:47;;;;;;;14.10;9.50;;;-0.70;43.40;;;;;;4994561;28;20180;-72
2023/11/23 06:50:13;;;;;;;13.20;9.40;;;-0.60;44.50;;;;;;4994344;28;20683;-71
2023/11/23 06:52:38;;;;;;;13.32;9.70;;;-0.50;44.90;;;;;;4994428;28;20169;-71
2023/11/23 06:55:05;;;;;;;13.63;8.97;;;-0.50;44.30;;;;;;4993983;28;20178;-71
2023/11/23 06:57:31;;;;;;;19.58;9.73;;;-0.50;43.60;;;;;;5011114;28;20176;-72
2023/11/23 06:59:58;;;;;;;11.20;7.70;;;-0.50;43.60;;;;;;5013696;28;20195;-70
2023/11/23 07:02:25;;;;;;;9.85;6.00;;;-0.50;44.30;;;;;;5013147;28;20450;-71
2023/11/23 07:04:50;;;;;;;11.27;7.38;;;-0.50;43.60;;;;;;5013060;28;20194;-72
2023/11/23 07:07:16;;;;;;;16.97;7.60;;;-0.50;43.60;;;;;;5013569;28;20168;-72
2023/11/23 07:09:41;;;;;;;12.83;8.47;;;-0.50;43.60;;;;;;5013673;28;20261;-72
2023/11/23 07:12:08;;;;;;;11.33;6.80;;;-0.50;43.60;;;;;;5013043;28;20246;-72
2023/11/23 07:14:34;;;;;;;11.68;6.93;;;-0.50;46.20;;;;;;5013533;28;20172;-71
2023/11/23 07:16:59;;;;;;;11.13;6.57;;;-0.50;53.60;;;;;;5013714;28;20187;-72
2023/11/23 07:19:26;;;;;;;11.23;7.13;;;-0.50;54.30;;;;;;5013461;28;20249;-72
2023/11/23 07:21:51;;;;;;;11.13;6.65;;;-0.50;52.60;;;;;;5013767;28;20215;-71
2023/11/23 07:24:18;;;;;;;12.90;7.93;;;-0.50;51.50;;;;;;5013416;28;20222;-71
2023/11/23 07:26:44;;;;;;;14.23;8.32;;;-0.50;51.40;;;;;;5013565;28;20180;-72
2023/11/23 07:29:10;;;;;;;10.02;7.78;;;-0.40;50.10;;;;;;5012248;28;20589;-73
2023/11/23 07:31:37;;;;;;;13.17;7.93;;;-0.40;49.90;;;;;;5013893;28;20188;-71
2023/11/23 07:34:02;;;;;;;13.95;10.07;;;-0.40;49.40;;;;;;5013683;28;20434;-71
2023/11/23 07:36:30;;;;;;;17.77;8.10;;;-0.30;49.10;;;;;;5013772;28;20643;-73
2023/11/23 07:38:55;;;;;;;21.80;9.27;;;-0.30;50.10;;;;;;5013461;28;20421;-72
2023/11/23 07:41:21;;;;;;;16.70;8.60;;;-0.20;49.10;;;;;;5013405;28;20594;-71
2023/11/23 07:43:47;;;;;;;11.67;6.73;;;-0.10;48.80;;;;;;5013627;28;20306;-70
2023/11/23 07:46:12;;;;;;;11.80;9.23;;;-0.10;48.40;;;;;;5014130;28;20176;-69
2023/11/23 07:48:38;;;;;;;12.57;8.87;;;-0.10;48.80;;;;;;5012664;28;20290;-69
2023/11/23 07:51:04;;;;;;;10.90;8.40;;;0.00;48.90;;;;;;5013625;28;20199;-70
2023/11/23 07:53:30;;;;;;;10.50;7.40;;;0.10;48.80;;;;;;5012778;28;20207;-70
2023/11/23 07:55:57;;;;;;;14.18;9.32;;;0.20;48.60;;;;;;5013445;28;20176;-70
2023/11/23 07:58:23;;;;;;;11.95;8.93;;;0.20;47.50;;;;;;5013198;28;20180;-70
2023/11/23 08:00:49;;;;;;;14.03;8.90;;;0.30;46.70;;;;;;5012821;28;20676;-69
2023/11/23 08:03:15;;;;;;;11.52;8.77;;;;;;;;;;5012859;28;20422;-69
2023/11/23 08:05:42;;;;;;;13.33;7.90;;;0.50;48.70;;;;;;5012478;28;20176;-70
2023/11/23 08:08:07;;;;;;;13.32;8.38;;;0.50;46.00;;;;;;4990532;28;20469;-69
2023/11/23 08:10:33;;;;;;;13.77;9.67;;;0.60;46.10;;;;;;4987663;28;20200;-70
2023/11/23 08:12:58;;;;;;;13.13;7.80;;;0.70;43.00;;;;;;4989586;28;20259;-70
2023/11/23 08:15:24;;;;;;;11.53;7.90;;;0.80;41.60;;;;;;4988627;28;20185;-69
2023/11/23 08:17:50;;;;;;;12.43;8.20;;;0.90;40.90;;;;;;4988721;28;20191;-71
2023/11/23 08:20:16;;;;;;;10.17;7.20;;;0.90;39.60;;;;;;4989317;28;20202;-70
2023/11/23 08:22:41;;;;;;;9.57;6.83;;;1.10;40.90;;;;;;4988466;28;20479;-69
2023/11/23 08:25:08;;;;;;;11.77;7.73;;;1.20;42.30;;;;;;4989455;28;20601;-70
2023/11/23 08:27:34;;;;;;;11.52;7.03;;;;;;;;;;4989405;28;20184;-69
2023/11/23 08:29:59;;;;;;;11.18;6.80;;;1.70;23.80;;;;;;4988539;28;20676;-69
2023/11/23 08:32:25;;;;;;;12.70;7.70;;;1.80;22.40;;;;;;4989392;28;20181;-69
2023/11/23 08:34:52;;;;;;;10.97;6.50;;;2.00;22.90;;;;;;4988793;28;20199;-70
2023/11/23 08:37:17;;;;;;;12.80;7.80;;;2.10;20.10;;;;;;4987213;28;20185;-70
2023/11/23 08:39:44;;;;;;;8.05;6.05;;;2.20;18.10;;;;;;4989184;28;20539;-70
2023/11/23 08:42:10;;;;;;;8.77;6.33;;;2.20;15.60;;;;;;4988471;28;20228;-70
2023/11/23 08:44:37;;;;;;;7.15;4.95;;;2.20;15.70;;;;;;4987835;28;20185;-70
2023/11/23 08:47:03;;;;;;;9.50;6.75;;;2.10;14.90;;;;;;4988809;28;20183;-70
2023/11/23 08:49:29;;;;;;;7.30;5.47;;;2.00;15.40;;;;;;4988623;28;20751;-70
2023/11/23 08:51:54;;;;;;;6.90;6.00;;;2.00;15.20;;;;;;4988027;28;20323;-69
2023/11/23 08:54:21;;;;;;;8.33;5.80;;;2.00;15.70;;;;;;4988506;28;20423;-69
2023/11/23 08:56:46;;;;;;;8.13;5.72;;;2.10;15.60;;;;;;4991620;28;20182;-69
2023/11/23 08:59:12;;;;;;;5.40;4.03;;;2.20;15.20;;;;;;4992887;28;20185;-70
2023/11/23 09:01:38;;;;;;;9.27;5.90;;;2.30;14.20;;;;;;4991203;28;20202;-69
2023/11/23 09:04:04;;;;;;;9.70;5.70;;;2.40;14.40;;;;;;4992477;28;20224;-69
2023/11/23 09:06:30;;;;;;;12.53;6.10;;;2.50;13.80;;;;;;4992643;28;20194;-69
2023/11/23 09:09:00;;;;;;;10.40;5.20;;;2.60;13.10;;;;;;4992351;28;20966;-70
2023/11/23 09:11:26;;;;;;;11.00;4.82;;;2.80;10.90;;;;;;4992245;28;20513;-70
2023/11/23 09:13:52;;;;;;;6.43;4.30;;;2.90;10.80;;;;;;4992581;28;20195;-69
2023/11/23 09:16:18;;;;;;;6.38;3.55;;;3.10;8.80;;;;;;4992669;28;20418;-69
2023/11/23 09:18:44;;;;;;;6.22;4.07;;;3.30;6.20;;;;;;4992281;28;20170;-72
2023/11/23 09:21:10;;;;;;;5.00;3.33;;;3.60;5.50;;;;;;4991618;28;20211;-71
2023/11/23 09:23:37;;;;;;;7.70;3.53;;;3.90;3.20;;;;;;4991034;28;20180;-71
2023/11/23 09:26:04;;;;;;;3.50;2.60;;;4.20;3.50;;;;;;4993141;28;20438;-69
2023/11/23 09:28:30;;;;;;;5.30;3.40;;;4.30;2.30;;;;;;4992769;28;20560;-69
2023/11/23 09:30:56;;;;;;;9.23;3.03;;;4.30;2.30;;;;;;4992830;28;20483;-71
2023/11/23 09:33:22;;;;;;;3.97;2.70;;;4.50;2.40;;;;;;4991967;28;20235;-71
2023/11/23 09:35:48;;;;;;;3.90;2.60;;;4.50;1.00;;;;;;4992261;28;20262;-70
2023/11/23 09:38:14;;;;;;;6.70;3.40;;;4.50;1.00;;;;;;4990938;28;20777;-71
2023/11/23 09:40:40;;;;;;;4.73;2.87;;;4.50;1.10;;;;;;4992005;28;20584;-72
2023/11/23 09:43:07;;;;;;;5.60;3.47;;;4.60;2.40;;;;;;4992723;28;20420;-72
2023/11/23 09:45:34;;;;;;;5.23;2.90;;;4.60;2.10;;;;;;4992456;28;20509;-72
2023/11/23 09:48:04;;;;;;;5.43;3.00;;;4.70;1.70;;;;;;4992883;28;20416;-72
2023/11/23 09:50:30;;;;;;;4.77;2.50;;;4.90;1.90;;;;;;4993035;28;21098;-72
2023/11/23 09:52:56;;;;;;;3.53;2.23;;;5.20;1.00;;;;;;4992642;28;20419;-71
2023/11/23 09:55:23;;;;;;;4.33;2.77;;;5.50;1.00;;;;;;4992523;28;20256;-71
2023/11/23 09:57:48;;;;;;;4.00;2.20;;;5.80;1.00;;;;;;4993030;28;20811;-71
2023/11/23 10:00:15;;;;;;;3.20;2.10;;;6.10;1.00;;;;;;4992651;28;20474;-71
2023/11/23 10:02:45;;;;;;;4.03;2.20;;;6.30;1.00;;;;;;4992586;28;20185;-71
2023/11/23 10:05:15;;;;;;;4.10;2.43;;;6.50;1.00;;;;;;4992616;28;21005;-71
2023/11/23 10:07:45;;;;;;;5.80;2.80;;;6.70;1.00;;;;;;4993354;28;20945;-70
2023/11/23 10:10:11;;;;;;;3.20;2.20;;;6.80;1.00;;;;;;4995968;28;20518;-71
2023/11/23 10:12:37;;;;;;;2.90;2.00;;;6.60;1.00;;;;;;4996951;28;20408;-71
2023/11/23 10:15:04;;;;;;;5.23;2.80;;;6.50;1.00;;;;;;4996409;28;20420;-71
2023/11/23 10:17:30;;;;;;;5.07;2.50;;;6.60;1.00;;;;;;4996502;28;20507;-70
2023/11/23 10:20:14;;;;;;;3.20;2.13;;;6.50;1.00;;;;;;4994746;28;20873;-71
2023/11/23 10:22:44;;;;;;;4.60;1.90;;;6.30;1.00;;;;;;4995838;28;20550;-70
2023/11/23 10:25:10;;;;;;;3.70;2.50;;;6.20;1.00;;;;;;4995804;28;20562;-71
2023/11/23 10:27:37;;;;;;;5.47;4.13;;;6.30;1.00;;;;;;4995697;28;20894;-71
2023/11/23 10:30:04;;;;;;;3.77;2.13;;;6.30;1.00;;;;;;4995761;28;20460;-71
2023/11/23 10:32:32;;;;;;;2.40;1.70;;;6.50;1.00;;;;;;4996080;28;20985;-72
2023/11/23 10:35:06;;;;;;;2.83;1.63;;;6.50;1.00;;;;;;4996236;28;20421;-72
2023/11/23 10:37:33;;;;;;;3.30;1.87;;;6.50;1.00;;;;;;4995616;28;20494;-70
2023/11/23 10:40:01;;;;;;;2.73;2.00;;;6.70;1.00;;;;;;4994607;28;20421;-71
2023/11/23 10:42:31;;;;;;;2.60;1.30;;;7.20;1.00;;;;;;4995013;28;20410;-72
2023/11/23 10:44:57;;;;;;;2.90;1.80;;;7.30;1.00;;;;;;4994998;28;20415;-71
2023/11/23 10:47:24;;;;;;;3.00;1.50;;;7.60;1.00;;;;;;4995665;28;20418;-69
2023/11/23 10:49:53;;;;;;;3.80;1.90;;;7.70;1.00;;;;;;4994925;28;20218;-68
2023/11/23 10:52:19;;;;;;;3.40;1.90;;;8.10;1.00;;;;;;4994344;28;20476;-69
2023/11/23 10:54:45;;;;;;;2.63;1.40;;;8.20;1.00;;;;;;4993934;28;20423;-69
2023/11/23 10:57:11;;;;;;;2.87;1.83;;;8.30;1.00;;;;;;4994130;28;20407;-69
2023/11/23 10:59:37;;;;;;;5.77;1.73;;;8.60;1.00;;;;;;4994049;28;20177;-69
2023/11/23 11:02:07;;;;;;;2.10;1.10;;;8.80;1.00;;;;;;4993977;28;20962;-71
2023/11/23 11:04:33;;;;;;;4.57;1.87;;;8.80;1.00;;;;;;4993739;28;20510;-69
2023/11/23 11:06:58;;;;;;;2.90;1.73;;;8.80;1.00;;;;;;4990697;28;20491;-69
2023/11/23 11:09:28;;;;;;;4.70;2.70;;;8.90;1.00;;;;;;4989040;28;20238;-69
2023/11/23 11:11:55;;;;;;;5.20;2.90;;;8.60;1.00;;;;;;4989416;28;20200;-69
2023/11/23 11:14:32;;;;;;;4.70;2.20;;;8.30;1.00;;;;;;4989962;28;20467;-69
2023/11/23 11:17:02;;;;;;;3.40;2.43;;;8.20;1.00;;;;;;4989951;28;20542;-69
2023/11/23 11:19:28;;;;;;;2.97;1.80;;;8.20;1.00;;;;;;4988757;28;20450;-70
2023/11/23 11:21:59;;;;;;;3.43;2.10;;;8.10;1.00;;;;;;4987873;28;20830;-69
2023/11/23 11:24:24;;;;;;;3.60;1.97;;;7.90;1.00;;;;;;4988309;28;20233;-69
2023/11/23 11:26:50;;;;;;;5.30;2.17;;;8.00;1.00;;;;;;4989202;28;20450;-70
2023/11/23 11:29:21;;;;;;;3.03;1.67;;;8.20;1.00;;;;;;4988807;28;20207;-70
2023/11/23 11:31:48;;;;;;;2.67;1.10;;;8.10;1.00;;;;;;4989162;28;20194;-70
2023/11/23 11:34:21;;;;;;;2.53;1.43;;;8.10;1.00;;;;;;4989480;28;20430;-70
2023/11/23 11:36:59;;;;;;;4.83;1.33;;;8.20;1.00;;;;;;4989085;28;20868;-70
2023/11/23 11:39:33;;;;;;;2.10;0.90;;;8.30;1.00;;;;;;4989287;28;20633;-71
2023/11/23 11:42:00;;;;;;;2.60;1.40;;;8.30;1.00;;;;;;4988676;28;20553;-70
2023/11/23 11:44:29;;;;;;;3.23;1.67;;;8.20;1.00;;;;;;4988436;28;20779;-69
2023/11/23 11:46:56;;;;;;;3.47;2.10;;;8.20;1.00;;;;;;4989233;28;20423;-69
2023/11/23 11:49:23;;;;;;;2.50;1.17;;;8.10;1.00;;;;;;4989087;28;20479;-71
2023/11/23 11:51:48;;;;;;;2.40;1.10;;;8.10;1.00;;;;;;4988413;28;20443;-69
2023/11/23 11:54:14;;;;;;;3.13;1.40;;;8.10;1.00;;;;;;4988947;28;20498;-69
2023/11/23 11:56:40;;;;;;;3.73;1.93;;;8.20;1.00;;;;;;4988990;28;20197;-71
2023/11/23 11:59:06;;;;;;;3.20;2.10;;;8.30;1.00;;;;;;4988433;28;20185;-71
2023/11/23 12:01:33;;;;;;;3.70;2.10;;;8.20;1.00;;;;;;4989591;28;20207;-69
2023/11/23 12:04:00;;;;;;;2.10;1.23;;;8.20;1.00;;;;;;4988771;28;20431;-70
2023/11/23 12:06:27;;;;;;;2.20;1.27;;;8.20;1.20;;;;;;4988723;28;20435;-70
2023/11/23 12:08:53;;;;;;;5.60;1.90;;;8.10;1.00;;;;;;4988747;28;20474;-69
2023/11/23 12:11:24;;;;;;;4.63;2.90;;;8.20;1.30;;;;;;4988771;28;20434;-70
2023/11/23 12:13:53;;;;;;;3.13;1.80;;;8.30;1.40;;;;;;4988778;28;20189;-70
2023/11/23 12:16:19;;;;;;;3.00;1.87;;;8.30;1.00;;;;;;4988513;28;20446;-70
2023/11/23 12:18:45;;;;;;;3.50;1.70;;;8.30;1.00;;;;;;4988847;28;20419;-69
2023/11/23 12:21:15;;;;;;;2.73;1.40;;;8.30;1.00;;;;;;4986715;28;20489;-69
2023/11/23 12:23:44;;;;;;;2.47;1.37;;;8.00;1.00;;;;;;4988804;28;20198;-70
2023/11/23 12:26:11;;;;;;;3.73;1.50;;;8.00;1.50;;;;;;4988469;28;20489;-70
2023/11/23 12:28:37;;;;;;;3.40;1.67;;;7.90;1.70;;;;;;4988252;28;20475;-70
2023/11/23 12:31:03;;;;;;;2.73;1.50;;;7.80;2.60;;;;;;4988911;28;20443;-70
2023/11/23 12:33:28;;;;;;;4.23;1.50;;;7.90;2.50;;;;;;4988330;28;20286;-71
2023/11/23 12:35:54;;;;;;;3.40;1.33;;;8.20;3.00;;;;;;4986990;28;20434;-68
2023/11/23 12:38:20;;;;;;;1.80;0.70;;;8.30;2.00;;;;;;4989064;28;20187;-70
2023/11/23 12:40:46;;;;;;;3.13;1.50;;;8.20;2.30;;;;;;4987763;28;20223;-69
2023/11/23 12:43:13;;;;;;;2.03;1.10;;;8.30;1.80;;;;;;4989318;28;20502;-69
2023/11/23 12:45:43;;;;;;;1.90;1.10;;;8.20;1.80;;;;;;4988652;28;20206;-69